sensor_id;sensor_type;location;lat;lon;timestamp;temperature;humidity
80495;DHT22;69819;48.798;11.770;2023-06-14T13:20:55;24.70;27.10
80495;DHT22;69819;48.798;11.770;2023-06-14T13:23:21;24.50;28.20
80495;DHT22;69819;48.798;11.770;2023-06-14T13:25:47;24.90;28.00
80495;DHT22;69819;48.798;11.770;2023-06-14T13:28:15;25.40;27.60
80495;DHT22;69819;48.798;11.770;2023-06-14T13:30:40;25.90;27.30
80495;DHT22;69819;48.798;11.770;2023-06-14T13:33:06;26.40;26.50
80495;DHT22;69819;48.798;11.770;2023-06-14T13:35:32;26.80;26.30
80495;DHT22;69819;48.798;11.770;2023-06-14T13:37:58;27.20;25.80
80495;DHT22;69819;48.798;11.770;2023-06-14T13:40:24;27.50;25.30
80495;DHT22;69819;48.798;11.770;2023-06-14T13:42:49;27.70;25.40
80495;DHT22;69819;48.798;11.770;2023-06-14T13:45:15;27.90;25.10
80495;DHT22;69819;48.798;11.770;2023-06-14T13:47:41;28.20;24.80
80495;DHT22;69819;48.798;11.770;2023-06-14T13:50:07;28.40;24.70
80495;DHT22;69819;48.798;11.770;2023-06-14T13:52:33;28.60;24.70
80495;DHT22;69819;48.798;11.770;2023-06-14T13:55:00;28.80;24.90
80495;DHT22;69819;48.798;11.770;2023-06-14T13:57:26;29.00;25.10
80495;DHT22;69819;48.798;11.770;2023-06-14T13:59:52;29.20;25.00
80495;DHT22;69819;48.798;11.770;2023-06-14T14:02:20;29.30;24.90
80495;DHT22;69819;48.798;11.770;2023-06-14T14:04:46;29.40;24.90
80495;DHT22;69819;48.798;11.770;2023-06-14T14:07:18;29.40;24.80
80495;DHT22;69819;48.798;11.770;2023-06-14T14:09:45;29.40;24.80
80495;DHT22;69819;48.798;11.770;2023-06-14T14:12:12;29.40;24.90
80495;DHT22;69819;48.798;11.770;2023-06-14T14:14:38;29.30;25.10
80495;DHT22;69819;48.798;11.770;2023-06-14T14:17:03;29.30;24.80
80495;DHT22;69819;48.798;11.770;2023-06-14T14:19:30;29.30;24.90
80495;DHT22;69819;48.798;11.770;2023-06-14T14:21:55;29.20;25.00
80495;DHT22;69819;48.798;11.770;2023-06-14T14:24:21;29.10;25.10
80495;DHT22;69819;48.798;11.770;2023-06-14T14:26:47;29.10;25.20
80495;DHT22;69819;48.798;11.770;2023-06-14T14:29:15;29.00;25.10
80495;DHT22;69819;48.798;11.770;2023-06-14T14:31:43;28.90;25.10
80495;DHT22;69819;48.798;11.770;2023-06-14T14:34:08;28.80;25.10
80495;DHT22;69819;48.798;11.770;2023-06-14T14:36:34;28.70;25.10
80495;DHT22;69819;48.798;11.770;2023-06-14T14:39:05;28.60;25.10
80495;DHT22;69819;48.798;11.770;2023-06-14T14:41:32;28.50;25.40
80495;DHT22;69819;48.798;11.770;2023-06-14T14:43:58;28.50;25.40
80495;DHT22;69819;48.798;11.770;2023-06-14T14:46:26;28.50;25.70
80495;DHT22;69819;48.798;11.770;2023-06-14T14:48:53;28.50;25.60
80495;DHT22;69819;48.798;11.770;2023-06-14T14:51:19;28.50;25.60
80495;DHT22;69819;48.798;11.770;2023-06-14T14:53:44;28.60;25.30
80495;DHT22;69819;48.798;11.770;2023-06-14T14:56:10;28.70;25.40
80495;DHT22;69819;48.798;11.770;2023-06-14T14:58:37;28.80;25.40
80495;DHT22;69819;48.798;11.770;2023-06-14T15:01:03;28.90;25.60
80495;DHT22;69819;48.798;11.770;2023-06-14T15:03:31;29.00;25.40
80495;DHT22;69819;48.798;11.770;2023-06-14T15:05:57;29.10;25.30
80495;DHT22;69819;48.798;11.770;2023-06-14T15:08:22;29.20;25.20
80495;DHT22;69819;48.798;11.770;2023-06-14T15:10:48;29.20;25.00
80495;DHT22;69819;48.798;11.770;2023-06-14T15:13:14;29.20;24.90
80495;DHT22;69819;48.798;11.770;2023-06-14T15:15:40;29.10;24.90
80495;DHT22;69819;48.798;11.770;2023-06-14T15:18:06;29.00;24.80
80495;DHT22;69819;48.798;11.770;2023-06-14T15:20:32;28.80;24.80
80495;DHT22;69819;48.798;11.770;2023-06-14T15:22:57;28.70;24.90
80495;DHT22;69819;48.798;11.770;2023-06-14T15:25:28;28.60;25.00
80495;DHT22;69819;48.798;11.770;2023-06-14T15:27:55;28.40;24.90
80495;DHT22;69819;48.798;11.770;2023-06-14T15:30:22;28.20;24.80
80495;DHT22;69819;48.798;11.770;2023-06-14T15:32:48;28.10;24.90
80495;DHT22;69819;48.798;11.770;2023-06-14T15:35:17;27.90;24.90
80495;DHT22;69819;48.798;11.770;2023-06-14T15:37:47;27.70;24.90
80495;DHT22;69819;48.798;11.770;2023-06-14T15:40:13;27.60;25.00
80495;DHT22;69819;48.798;11.770;2023-06-14T15:42:39;27.40;25.00
80495;DHT22;69819;48.798;11.770;2023-06-14T15:45:05;27.30;25.10
80495;DHT22;69819;48.798;11.770;2023-06-14T15:47:31;27.20;25.10
80495;DHT22;69819;48.798;11.770;2023-06-14T15:49:57;27.10;25.40
80495;DHT22;69819;48.798;11.770;2023-06-14T15:52:23;27.10;25.50
80495;DHT22;69819;48.798;11.770;2023-06-14T15:54:48;27.00;25.50
80495;DHT22;69819;48.798;11.770;2023-06-14T15:57:14;26.90;25.50
80495;DHT22;69819;48.798;11.770;2023-06-14T15:59:40;26.80;25.50
80495;DHT22;69819;48.798;11.770;2023-06-14T16:02:06;26.80;25.60
80495;DHT22;69819;48.798;11.770;2023-06-14T16:04:32;26.80;25.80
80495;DHT22;69819;48.798;11.770;2023-06-14T16:06:57;26.80;25.80
80495;DHT22;69819;48.798;11.770;2023-06-14T16:09:23;26.70;25.90
80495;DHT22;69819;48.798;11.770;2023-06-14T16:11:49;26.70;26.10
80495;DHT22;69819;48.798;11.770;2023-06-14T16:14:15;26.60;26.30
80495;DHT22;69819;48.798;11.770;2023-06-14T16:16:40;26.60;26.40
80495;DHT22;69819;48.798;11.770;2023-06-14T16:19:06;26.60;26.60
80495;DHT22;69819;48.798;11.770;2023-06-14T16:21:33;26.60;26.70
80495;DHT22;69819;48.798;11.770;2023-06-14T16:24:02;26.60;27.30
80495;DHT22;69819;48.798;11.770;2023-06-14T16:26:29;26.50;26.90
80495;DHT22;69819;48.798;11.770;2023-06-14T16:28:55;26.50;27.00
80495;DHT22;69819;48.798;11.770;2023-06-14T16:31:21;26.50;27.00
80495;DHT22;69819;48.798;11.770;2023-06-14T16:33:48;26.50;26.90
80495;DHT22;69819;48.798;11.770;2023-06-14T16:36:23;26.50;27.00
80495;DHT22;69819;48.798;11.770;2023-06-14T16:38:50;26.50;27.10
80495;DHT22;69819;48.798;11.770;2023-06-14T16:41:16;26.40;27.10
80495;DHT22;69819;48.798;11.770;2023-06-14T16:43:42;26.40;27.00
80495;DHT22;69819;48.798;11.770;2023-06-14T16:46:08;26.50;27.00
80495;DHT22;69819;48.798;11.770;2023-06-14T16:48:34;26.50;27.10
80495;DHT22;69819;48.798;11.770;2023-06-14T16:51:01;26.50;27.10
80495;DHT22;69819;48.798;11.770;2023-06-14T16:53:27;26.50;27.20
80495;DHT22;69819;48.798;11.770;2023-06-14T16:55:53;26.50;27.20
80495;DHT22;69819;48.798;11.770;2023-06-14T16:58:19;26.50;27.20
80495;DHT22;69819;48.798;11.770;2023-06-14T17:00:44;26.50;27.20
80495;DHT22;69819;48.798;11.770;2023-06-14T17:03:10;26.50;27.20
80495;DHT22;69819;48.798;11.770;2023-06-14T17:05:36;26.50;27.20
80495;DHT22;69819;48.798;11.770;2023-06-14T17:08:02;26.50;27.20
80495;DHT22;69819;48.798;11.770;2023-06-14T17:10:28;26.50;27.40
80495;DHT22;69819;48.798;11.770;2023-06-14T17:12:54;26.50;27.40
80495;DHT22;69819;48.798;11.770;2023-06-14T17:15:20;26.50;27.40
80495;DHT22;69819;48.798;11.770;2023-06-14T17:17:45;26.60;27.40
80495;DHT22;69819;48.798;11.770;2023-06-14T17:20:11;26.60;27.50
80495;DHT22;69819;48.798;11.770;2023-06-14T17:22:38;26.60;27.50
80495;DHT22;69819;48.798;11.770;2023-06-14T17:25:06;26.60;27.60
80495;DHT22;69819;48.798;11.770;2023-06-14T17:27:32;26.70;27.60
80495;DHT22;69819;48.798;11.770;2023-06-14T17:29:58;26.70;27.70
80495;DHT22;69819;48.798;11.770;2023-06-14T17:32:24;26.70;27.70
80495;DHT22;69819;48.798;11.770;2023-06-14T17:34:49;26.70;27.70
80495;DHT22;69819;48.798;11.770;2023-06-14T17:37:15;26.70;27.80
80495;DHT22;69819;48.798;11.770;2023-06-14T17:39:41;26.70;28.30
80495;DHT22;69819;48.798;11.770;2023-06-14T17:42:07;26.70;27.70
80495;DHT22;69819;48.798;11.770;2023-06-14T17:44:33;26.70;27.60
80495;DHT22;69819;48.798;11.770;2023-06-14T17:46:59;26.70;27.60
80495;DHT22;69819;48.798;11.770;2023-06-14T17:49:25;26.70;27.60
80495;DHT22;69819;48.798;11.770;2023-06-14T17:51:52;26.70;27.80
80495;DHT22;69819;48.798;11.770;2023-06-14T17:54:18;26.70;27.80
80495;DHT22;69819;48.798;11.770;2023-06-14T17:56:44;26.60;27.80
80495;DHT22;69819;48.798;11.770;2023-06-14T17:59:10;26.50;28.40
80495;DHT22;69819;48.798;11.770;2023-06-14T18:01:36;26.50;28.00
80495;DHT22;69819;48.798;11.770;2023-06-14T18:04:01;26.40;28.00
80495;DHT22;69819;48.798;11.770;2023-06-14T18:06:27;26.30;28.10
80495;DHT22;69819;48.798;11.770;2023-06-14T18:08:53;26.20;28.30
80495;DHT22;69819;48.798;11.770;2023-06-14T18:11:19;26.10;28.30
80495;DHT22;69819;48.798;11.770;2023-06-14T18:13:45;26.00;28.40
80495;DHT22;69819;48.798;11.770;2023-06-14T18:16:11;26.00;28.60
80495;DHT22;69819;48.798;11.770;2023-06-14T18:18:40;25.80;28.80
80495;DHT22;69819;48.798;11.770;2023-06-14T18:21:06;25.80;29.00
80495;DHT22;69819;48.798;11.770;2023-06-14T18:23:33;25.70;29.10
80495;DHT22;69819;48.798;11.770;2023-06-14T18:25:58;25.60;29.20
80495;DHT22;69819;48.798;11.770;2023-06-14T18:28:24;25.50;29.30
80495;DHT22;69819;48.798;11.770;2023-06-14T18:30:50;25.40;29.40
80495;DHT22;69819;48.798;11.770;2023-06-14T18:33:16;25.30;29.70
80495;DHT22;69819;48.798;11.770;2023-06-14T18:35:41;25.30;29.80
80495;DHT22;69819;48.798;11.770;2023-06-14T18:38:07;25.20;29.90
80495;DHT22;69819;48.798;11.770;2023-06-14T18:40:33;25.10;30.00
80495;DHT22;69819;48.798;11.770;2023-06-14T18:42:59;25.00;30.10
80495;DHT22;69819;48.798;11.770;2023-06-14T18:45:25;25.00;30.30
80495;DHT22;69819;48.798;11.770;2023-06-14T18:47:50;24.90;30.40
80495;DHT22;69819;48.798;11.770;2023-06-14T18:50:17;24.80;30.50
80495;DHT22;69819;48.798;11.770;2023-06-14T18:52:43;24.70;30.80
80495;DHT22;69819;48.798;11.770;2023-06-14T18:55:10;24.60;30.90
80495;DHT22;69819;48.798;11.770;2023-06-14T18:57:35;24.60;31.00
80495;DHT22;69819;48.798;11.770;2023-06-14T19:00:01;24.40;31.30
80495;DHT22;69819;48.798;11.770;2023-06-14T19:02:30;24.40;31.60
80495;DHT22;69819;48.798;11.770;2023-06-14T19:04:56;24.30;31.60
80495;DHT22;69819;48.798;11.770;2023-06-14T19:07:22;24.20;31.70
80495;DHT22;69819;48.798;11.770;2023-06-14T19:09:48;24.10;31.90
80495;DHT22;69819;48.798;11.770;2023-06-14T19:12:14;24.00;32.10
80495;DHT22;69819;48.798;11.770;2023-06-14T19:14:39;23.90;32.10
80495;DHT22;69819;48.798;11.770;2023-06-14T19:17:05;23.90;32.40
80495;DHT22;69819;48.798;11.770;2023-06-14T19:19:33;23.80;32.60
80495;DHT22;69819;48.798;11.770;2023-06-14T19:21:59;23.70;32.60
80495;DHT22;69819;48.798;11.770;2023-06-14T19:24:24;23.60;32.60
80495;DHT22;69819;48.798;11.770;2023-06-14T19:26:50;23.50;32.70
80495;DHT22;69819;48.798;11.770;2023-06-14T19:29:16;23.50;32.90
80495;DHT22;69819;48.798;11.770;2023-06-14T19:31:41;23.40;33.00
80495;DHT22;69819;48.798;11.770;2023-06-14T19:34:07;23.30;33.00
80495;DHT22;69819;48.798;11.770;2023-06-14T19:36:33;23.20;33.20
80495;DHT22;69819;48.798;11.770;2023-06-14T19:38:59;23.10;33.30
80495;DHT22;69819;48.798;11.770;2023-06-14T19:41:24;23.00;33.40
80495;DHT22;69819;48.798;11.770;2023-06-14T19:43:53;23.00;33.50
80495;DHT22;69819;48.798;11.770;2023-06-14T19:46:19;22.90;33.60
80495;DHT22;69819;48.798;11.770;2023-06-14T19:48:46;22.80;33.70
80495;DHT22;69819;48.798;11.770;2023-06-14T19:51:14;22.70;33.80
80495;DHT22;69819;48.798;11.770;2023-06-14T19:53:40;22.60;33.90
80495;DHT22;69819;48.798;11.770;2023-06-14T19:56:05;22.50;33.90
80495;DHT22;69819;48.798;11.770;2023-06-14T19:58:32;22.50;34.10
80495;DHT22;69819;48.798;11.770;2023-06-14T20:00:58;22.40;34.20
80495;DHT22;69819;48.798;11.770;2023-06-14T20:03:24;22.30;34.30
80495;DHT22;69819;48.798;11.770;2023-06-14T20:05:50;22.20;34.50
80495;DHT22;69819;48.798;11.770;2023-06-14T20:08:18;22.10;34.60
80495;DHT22;69819;48.798;11.770;2023-06-14T20:10:52;22.10;34.80
80495;DHT22;69819;48.798;11.770;2023-06-14T20:13:18;22.00;34.90
80495;DHT22;69819;48.798;11.770;2023-06-14T20:15:44;21.90;34.90
80495;DHT22;69819;48.798;11.770;2023-06-14T20:18:11;21.80;34.90
80495;DHT22;69819;48.798;11.770;2023-06-14T20:20:38;21.80;35.10
80495;DHT22;69819;48.798;11.770;2023-06-14T20:23:09;21.70;35.40
80495;DHT22;69819;48.798;11.770;2023-06-14T20:25:35;21.60;35.30
80495;DHT22;69819;48.798;11.770;2023-06-14T20:28:01;21.60;35.40
80495;DHT22;69819;48.798;11.770;2023-06-14T20:30:26;21.60;35.50
80495;DHT22;69819;48.798;11.770;2023-06-14T20:32:52;21.50;35.60
80495;DHT22;69819;48.798;11.770;2023-06-14T20:35:18;21.50;35.60
80495;DHT22;69819;48.798;11.770;2023-06-14T20:37:44;21.40;36.20
80495;DHT22;69819;48.798;11.770;2023-06-14T20:40:19;21.40;36.20
80495;DHT22;69819;48.798;11.770;2023-06-14T20:42:46;21.40;36.30
80495;DHT22;69819;48.798;11.770;2023-06-14T20:45:14;21.30;35.80
80495;DHT22;69819;48.798;11.770;2023-06-14T20:47:40;21.30;35.90
80495;DHT22;69819;48.798;11.770;2023-06-14T20:50:07;21.30;35.90
80495;DHT22;69819;48.798;11.770;2023-06-14T20:52:39;21.30;36.10
80495;DHT22;69819;48.798;11.770;2023-06-14T20:55:07;21.30;36.20
80495;DHT22;69819;48.798;11.770;2023-06-14T20:57:34;21.20;36.20
80495;DHT22;69819;48.798;11.770;2023-06-14T21:00:03;21.20;36.30
80495;DHT22;69819;48.798;11.770;2023-06-14T21:02:39;21.20;36.30
80495;DHT22;69819;48.798;11.770;2023-06-14T21:05:06;21.20;36.60
80495;DHT22;69819;48.798;11.770;2023-06-14T21:07:33;21.20;36.40
80495;DHT22;69819;48.798;11.770;2023-06-14T21:09:59;21.20;36.40
80495;DHT22;69819;48.798;11.770;2023-06-14T21:12:25;21.20;36.60
80495;DHT22;69819;48.798;11.770;2023-06-14T21:14:51;21.20;36.40
80495;DHT22;69819;48.798;11.770;2023-06-14T21:17:17;21.20;36.60
80495;DHT22;69819;48.798;11.770;2023-06-14T21:19:43;21.20;36.60
80495;DHT22;69819;48.798;11.770;2023-06-14T21:22:09;21.20;36.60
80495;DHT22;69819;48.798;11.770;2023-06-14T21:24:35;21.20;36.60
80495;DHT22;69819;48.798;11.770;2023-06-14T21:27:02;21.20;36.70
80495;DHT22;69819;48.798;11.770;2023-06-14T21:29:28;21.20;36.70
80495;DHT22;69819;48.798;11.770;2023-06-14T21:31:54;21.20;36.70
80495;DHT22;69819;48.798;11.770;2023-06-14T21:34:21;21.20;36.80
80495;DHT22;69819;48.798;11.770;2023-06-14T21:36:47;21.20;36.80
80495;DHT22;69819;48.798;11.770;2023-06-14T21:39:17;21.20;36.80
80495;DHT22;69819;48.798;11.770;2023-06-14T21:41:44;21.20;36.80
80495;DHT22;69819;48.798;11.770;2023-06-14T21:44:09;21.20;36.80
80495;DHT22;69819;48.798;11.770;2023-06-14T21:46:35;21.20;36.90
80495;DHT22;69819;48.798;11.770;2023-06-14T21:49:01;21.20;37.00
80495;DHT22;69819;48.798;11.770;2023-06-14T21:51:26;21.20;37.00
80495;DHT22;69819;48.798;11.770;2023-06-14T21:53:52;21.20;37.10
80495;DHT22;69819;48.798;11.770;2023-06-14T21:56:18;21.20;37.10
80495;DHT22;69819;48.798;11.770;2023-06-14T21:58:44;21.20;37.30
80495;DHT22;69819;48.798;11.770;2023-06-14T22:01:10;21.20;37.30
80495;DHT22;69819;48.798;11.770;2023-06-14T22:03:36;21.20;37.20
80495;DHT22;69819;48.798;11.770;2023-06-14T22:06:02;21.20;37.20
80495;DHT22;69819;48.798;11.770;2023-06-14T22:08:28;21.20;37.40
80495;DHT22;69819;48.798;11.770;2023-06-14T22:10:58;21.20;37.40
80495;DHT22;69819;48.798;11.770;2023-06-14T22:13:27;21.20;37.40
80495;DHT22;69819;48.798;11.770;2023-06-14T22:15:55;21.20;37.40
80495;DHT22;69819;48.798;11.770;2023-06-14T22:18:22;21.10;37.30
80495;DHT22;69819;48.798;11.770;2023-06-14T22:20:48;21.10;37.30
80495;DHT22;69819;48.798;11.770;2023-06-14T22:23:14;21.10;37.30
80495;DHT22;69819;48.798;11.770;2023-06-14T22:25:40;21.10;37.30
80495;DHT22;69819;48.798;11.770;2023-06-14T22:28:06;21.10;37.30
80495;DHT22;69819;48.798;11.770;2023-06-14T22:30:34;21.10;37.30
80495;DHT22;69819;48.798;11.770;2023-06-14T22:33:01;21.10;37.40
80495;DHT22;69819;48.798;11.770;2023-06-14T22:35:31;21.10;37.30
80495;DHT22;69819;48.798;11.770;2023-06-14T22:37:57;21.00;37.40
80495;DHT22;69819;48.798;11.770;2023-06-14T22:40:22;21.00;37.50
80495;DHT22;69819;48.798;11.770;2023-06-14T22:42:49;21.00;37.70
80495;DHT22;69819;48.798;11.770;2023-06-14T22:45:19;21.00;37.70
80495;DHT22;69819;48.798;11.770;2023-06-14T22:47:54;21.00;38.10
80495;DHT22;69819;48.798;11.770;2023-06-14T22:50:20;20.90;37.70
80495;DHT22;69819;48.798;11.770;2023-06-14T22:52:46;20.90;37.70
80495;DHT22;69819;48.798;11.770;2023-06-14T22:55:12;20.90;37.80
80495;DHT22;69819;48.798;11.770;2023-06-14T22:57:39;20.90;37.80
80495;DHT22;69819;48.798;11.770;2023-06-14T23:00:07;20.90;38.00
80495;DHT22;69819;48.798;11.770;2023-06-14T23:02:40;20.80;37.90
80495;DHT22;69819;48.798;11.770;2023-06-14T23:05:07;20.80;38.20
80495;DHT22;69819;48.798;11.770;2023-06-14T23:07:37;20.80;38.00
80495;DHT22;69819;48.798;11.770;2023-06-14T23:10:03;20.80;38.00
80495;DHT22;69819;48.798;11.770;2023-06-14T23:12:30;20.70;38.00
80495;DHT22;69819;48.798;11.770;2023-06-14T23:14:56;20.70;38.00
80495;DHT22;69819;48.798;11.770;2023-06-14T23:17:28;20.70;38.10
80495;DHT22;69819;48.798;11.770;2023-06-14T23:19:59;20.70;38.20
80495;DHT22;69819;48.798;11.770;2023-06-14T23:22:33;20.70;38.30
80495;DHT22;69819;48.798;11.770;2023-06-14T23:25:06;20.60;38.30
80495;DHT22;69819;48.798;11.770;2023-06-14T23:27:35;20.60;38.30
80495;DHT22;69819;48.798;11.770;2023-06-14T23:30:03;20.60;38.70
80495;DHT22;69819;48.798;11.770;2023-06-14T23:32:30;20.50;38.40
80495;DHT22;69819;48.798;11.770;2023-06-14T23:35:00;20.50;38.50
80495;DHT22;69819;48.798;11.770;2023-06-14T23:37:26;20.40;38.60
80495;DHT22;69819;48.798;11.770;2023-06-14T23:39:53;20.40;38.70
80495;DHT22;69819;48.798;11.770;2023-06-14T23:42:20;20.40;38.80
80495;DHT22;69819;48.798;11.770;2023-06-14T23:44:46;20.30;38.90
80495;DHT22;69819;48.798;11.770;2023-06-14T23:47:12;20.20;38.80
80495;DHT22;69819;48.798;11.770;2023-06-14T23:49:38;20.20;38.80
80495;DHT22;69819;48.798;11.770;2023-06-14T23:52:04;20.10;38.90
80495;DHT22;69819;48.798;11.770;2023-06-14T23:54:33;20.10;38.90
80495;DHT22;69819;48.798;11.770;2023-06-14T23:56:59;20.00;38.90
80495;DHT22;69819;48.798;11.770;2023-06-14T23:59:28;20.00;39.10
